sensor_id;sensor_type;location;lat;lon;timestamp;pressure;altitude;pressure_sealevel;temperature;humidity
35908;BME280;22003;50.320;8.054;2023-02-03T00:00:03;100695.88;;;6.65;100.00
35908;BME280;22003;50.320;8.054;2023-02-03T05:03:12;100588.13;;;6.79;100.00
35908;BME280;22003;50.320;8.054;2023-02-03T05:05:38;100593.41;;;6.97;100.00
35908;BME280;22003;50.320;8.054;2023-02-03T05:08:03;100596.50;;;6.87;100.00
35908;BME280;22003;50.320;8.054;2023-02-03T05:10:29;100575.25;;;6.73;100.00
35908;BME280;22003;50.320;8.054;2023-02-03T05:12:54;100585.19;;;6.85;100.00
35908;BME280;22003;50.320;8.054;2023-02-03T05:15:19;100605.50;;;7.01;100.00
35908;BME280;22003;50.320;8.054;2023-02-03T05:17:44;100600.63;;;7.10;99.36
35908;BME280;22003;50.320;8.054;2023-02-03T05:20:10;100598.28;;;7.22;98.56
35908;BME280;22003;50.320;8.054;2023-02-03T05:22:35;100579.09;;;7.02;99.26
35908;BME280;22003;50.320;8.054;2023-02-03T05:25:02;100559.88;;;6.83;99.01
35908;BME280;22003;50.320;8.054;2023-02-03T05:27:27;100579.00;;;7.04;99.27
35908;BME280;22003;50.320;8.054;2023-02-03T05:29:53;100576.06;;;7.10;97.98
35908;BME280;22003;50.320;8.054;2023-02-03T05:32:18;100591.41;;;7.02;98.63
35908;BME280;22003;50.320;8.054;2023-02-03T05:34:43;100602.09;;;6.99;99.33
35908;BME280;22003;50.320;8.054;2023-02-03T05:37:09;100587.28;;;6.96;98.56
35908;BME280;22003;50.320;8.054;2023-02-03T05:39:34;100596.38;;;7.08;98.22
35908;BME280;22003;50.320;8.054;2023-02-03T05:41:59;100580.56;;;6.91;98.37
35908;BME280;22003;50.320;8.054;2023-02-03T05:44:26;100576.28;;;6.88;98.98
35908;BME280;22003;50.320;8.054;2023-02-03T05:46:53;100589.53;;;6.86;98.83
35908;BME280;22003;50.320;8.054;2023-02-03T05:49:19;100593.72;;;7.08;98.82
35908;BME280;22003;50.320;8.054;2023-02-03T05:51:45;100587.69;;;7.06;98.10
35908;BME280;22003;50.320;8.054;2023-02-03T05:54:11;100601.78;;;7.05;97.53
35908;BME280;22003;50.320;8.054;2023-02-03T05:56:37;100563.97;;;7.06;96.98
35908;BME280;22003;50.320;8.054;2023-02-03T05:59:03;100585.91;;;7.06;96.68
35908;BME280;22003;50.320;8.054;2023-02-03T06:01:28;100571.72;;;6.92;97.45
35908;BME280;22003;50.320;8.054;2023-02-03T06:03:54;100589.31;;;7.08;97.39
35908;BME280;22003;50.320;8.054;2023-02-03T06:06:19;100593.72;;;7.08;97.34
35908;BME280;22003;50.320;8.054;2023-02-03T06:08:44;100590.97;;;7.11;96.87
35908;BME280;22003;50.320;8.054;2023-02-03T06:11:10;100575.44;;;7.05;96.58
35908;BME280;22003;50.320;8.054;2023-02-03T06:13:36;100566.44;;;7.09;97.00
35908;BME280;22003;50.320;8.054;2023-02-03T06:16:01;100583.09;;;7.09;96.57
35908;BME280;22003;50.320;8.054;2023-02-03T06:18:27;100551.81;;;7.03;96.41
35908;BME280;22003;50.320;8.054;2023-02-03T06:20:52;100555.38;;;7.02;96.29
35908;BME280;22003;50.320;8.054;2023-02-03T06:23:18;100559.47;;;7.08;96.39
35908;BME280;22003;50.320;8.054;2023-02-03T06:25:44;100562.56;;;7.16;95.79
35908;BME280;22003;50.320;8.054;2023-02-03T06:28:09;100555.81;;;7.10;96.10
35908;BME280;22003;50.320;8.054;2023-02-03T06:30:35;100568.78;;;7.15;96.06
35908;BME280;22003;50.320;8.054;2023-02-03T06:33:00;100568.94;;;7.12;96.11
35908;BME280;22003;50.320;8.054;2023-02-03T06:35:26;100569.25;;;7.23;94.91
35908;BME280;22003;50.320;8.054;2023-02-03T06:37:51;100542.97;;;7.04;95.20
35908;BME280;22003;50.320;8.054;2023-02-03T06:40:16;100575.72;;;7.16;95.24
35908;BME280;22003;50.320;8.054;2023-02-03T06:42:46;100561.09;;;7.10;94.78
35908;BME280;22003;50.320;8.054;2023-02-03T06:45:12;100570.72;;;7.11;95.05
35908;BME280;22003;50.320;8.054;2023-02-03T06:47:44;100567.47;;;7.06;94.52
35908;BME280;22003;50.320;8.054;2023-02-03T06:50:12;100609.09;;;7.17;94.37
35908;BME280;22003;50.320;8.054;2023-02-03T06:52:37;100588.78;;;7.02;94.84
35908;BME280;22003;50.320;8.054;2023-02-03T06:55:04;100596.00;;;7.33;93.86
35908;BME280;22003;50.320;8.054;2023-02-03T06:57:29;100597.59;;;7.35;93.54
35908;BME280;22003;50.320;8.054;2023-02-03T06:59:55;100595.34;;;7.10;94.29
35908;BME280;22003;50.320;8.054;2023-02-03T07:02:20;100594.56;;;7.08;94.66
35908;BME280;22003;50.320;8.054;2023-02-03T07:04:45;100576.63;;;7.17;94.59
35908;BME280;22003;50.320;8.054;2023-02-03T07:07:11;100576.97;;;7.09;94.73
35908;BME280;22003;50.320;8.054;2023-02-03T07:09:40;100587.53;;;7.09;94.81
35908;BME280;22003;50.320;8.054;2023-02-03T07:12:06;100595.91;;;7.17;95.30
35908;BME280;22003;50.320;8.054;2023-02-03T07:14:32;100598.25;;;7.23;94.67
35908;BME280;22003;50.320;8.054;2023-02-03T07:17:00;100594.25;;;7.32;94.21
35908;BME280;22003;50.320;8.054;2023-02-03T07:19:25;100587.38;;;7.29;93.70
35908;BME280;22003;50.320;8.054;2023-02-03T07:21:50;100584.28;;;7.38;93.81
35908;BME280;22003;50.320;8.054;2023-02-03T07:24:15;100565.69;;;7.24;94.11
35908;BME280;22003;50.320;8.054;2023-02-03T07:26:41;100571.25;;;7.18;93.31
35908;BME280;22003;50.320;8.054;2023-02-03T07:29:06;100576.66;;;7.32;93.59
35908;BME280;22003;50.320;8.054;2023-02-03T07:31:31;100573.91;;;7.18;93.36
35908;BME280;22003;50.320;8.054;2023-02-03T07:33:57;100575.91;;;7.30;93.30
35908;BME280;22003;50.320;8.054;2023-02-03T07:36:23;100581.94;;;7.32;93.05
35908;BME280;22003;50.320;8.054;2023-02-03T07:38:48;100608.47;;;7.47;92.99
35908;BME280;22003;50.320;8.054;2023-02-03T07:41:14;100599.31;;;7.36;92.84
35908;BME280;22003;50.320;8.054;2023-02-03T07:43:39;100592.47;;;7.32;92.73
35908;BME280;22003;50.320;8.054;2023-02-03T07:46:04;100614.66;;;7.46;92.25
35908;BME280;22003;50.320;8.054;2023-02-03T07:48:29;100614.50;;;7.49;92.36
35908;BME280;22003;50.320;8.054;2023-02-03T07:50:55;100608.53;;;7.45;91.74
35908;BME280;22003;50.320;8.054;2023-02-03T07:53:20;100602.47;;;7.43;92.12
35908;BME280;22003;50.320;8.054;2023-02-03T07:55:45;100617.22;;;7.47;91.93
35908;BME280;22003;50.320;8.054;2023-02-03T07:58:11;100614.44;;;7.33;92.31
35908;BME280;22003;50.320;8.054;2023-02-03T08:00:36;100609.19;;;7.33;92.39
35908;BME280;22003;50.320;8.054;2023-02-03T08:03:02;100617.22;;;7.30;92.77
35908;BME280;22003;50.320;8.054;2023-02-03T08:05:27;100609.41;;;7.46;93.13
35908;BME280;22003;50.320;8.054;2023-02-03T08:07:54;100562.19;;;7.24;92.89
35908;BME280;22003;50.320;8.054;2023-02-03T08:10:19;100585.38;;;7.34;92.44
35908;BME280;22003;50.320;8.054;2023-02-03T08:12:44;100597.19;;;7.43;92.36
35908;BME280;22003;50.320;8.054;2023-02-03T08:15:11;100584.59;;;7.50;92.00
35908;BME280;22003;50.320;8.054;2023-02-03T08:17:36;100601.94;;;7.54;92.55
35908;BME280;22003;50.320;8.054;2023-02-03T08:20:04;100604.94;;;7.63;92.36
35908;BME280;22003;50.320;8.054;2023-02-03T08:22:30;100593.66;;;7.44;92.98
35908;BME280;22003;50.320;8.054;2023-02-03T08:24:55;100575.44;;;7.39;92.43
35908;BME280;22003;50.320;8.054;2023-02-03T08:27:21;100577.81;;;7.27;92.38
35908;BME280;22003;50.320;8.054;2023-02-03T08:29:47;100617.56;;;7.74;91.69
35908;BME280;22003;50.320;8.054;2023-02-03T08:32:16;100616.03;;;7.70;91.75
35908;BME280;22003;50.320;8.054;2023-02-03T08:34:42;100597.44;;;7.56;91.43
35908;BME280;22003;50.320;8.054;2023-02-03T08:37:07;100603.69;;;7.71;92.03
35908;BME280;22003;50.320;8.054;2023-02-03T08:39:34;100589.88;;;7.65;91.74
35908;BME280;22003;50.320;8.054;2023-02-03T08:42:00;100582.88;;;7.82;90.67
35908;BME280;22003;50.320;8.054;2023-02-03T08:44:27;100585.75;;;7.77;90.42
35908;BME280;22003;50.320;8.054;2023-02-03T08:46:53;100583.84;;;7.97;89.62
35908;BME280;22003;50.320;8.054;2023-02-03T08:49:19;100578.63;;;7.79;90.27
35908;BME280;22003;50.320;8.054;2023-02-03T08:51:46;100562.78;;;7.79;89.50
35908;BME280;22003;50.320;8.054;2023-02-03T08:54:12;100585.88;;;7.91;88.88
35908;BME280;22003;50.320;8.054;2023-02-03T08:56:37;100578.56;;;7.97;88.43
35908;BME280;22003;50.320;8.054;2023-02-03T08:59:03;100574.59;;;8.05;87.63
35908;BME280;22003;50.320;8.054;2023-02-03T09:01:28;100564.19;;;8.02;87.57
35908;BME280;22003;50.320;8.054;2023-02-03T09:03:53;100573.13;;;8.00;87.60
35908;BME280;22003;50.320;8.054;2023-02-03T09:06:19;100546.81;;;7.98;87.13
35908;BME280;22003;50.320;8.054;2023-02-03T09:08:45;100568.63;;;8.02;87.22
35908;BME280;22003;50.320;8.054;2023-02-03T09:11:16;100570.75;;;8.11;86.54
35908;BME280;22003;50.320;8.054;2023-02-03T09:13:42;100592.63;;;8.13;87.08
35908;BME280;22003;50.320;8.054;2023-02-03T09:16:11;100591.97;;;8.25;85.96
35908;BME280;22003;50.320;8.054;2023-02-03T09:18:36;100558.06;;;8.17;86.25
35908;BME280;22003;50.320;8.054;2023-02-03T09:21:06;100575.63;;;8.34;85.25
35908;BME280;22003;50.320;8.054;2023-02-03T09:23:31;100581.34;;;8.42;85.46
35908;BME280;22003;50.320;8.054;2023-02-03T09:26:04;100575.13;;;8.43;85.63
35908;BME280;22003;50.320;8.054;2023-02-03T09:28:29;100569.28;;;8.38;85.21
35908;BME280;22003;50.320;8.054;2023-02-03T09:31:05;100574.28;;;8.43;85.24
35908;BME280;22003;50.320;8.054;2023-02-03T09:33:31;100569.53;;;8.50;84.50
35908;BME280;22003;50.320;8.054;2023-02-03T09:35:56;100575.81;;;8.47;84.52
35908;BME280;22003;50.320;8.054;2023-02-03T09:38:22;100567.13;;;8.45;84.28
35908;BME280;22003;50.320;8.054;2023-02-03T09:40:52;100595.75;;;8.68;84.21
35908;BME280;22003;50.320;8.054;2023-02-03T09:43:28;100571.47;;;8.62;84.22
35908;BME280;22003;50.320;8.054;2023-02-03T09:46:29;100574.53;;;8.54;84.21
35908;BME280;22003;50.320;8.054;2023-02-03T09:52:08;100563.97;;;8.54;84.70
35908;BME280;22003;50.320;8.054;2023-02-03T09:54:52;100571.47;;;8.62;84.54
35908;BME280;22003;50.320;8.054;2023-02-03T09:57:28;100564.31;;;8.48;84.82
35908;BME280;22003;50.320;8.054;2023-02-03T09:59:56;100564.63;;;8.73;85.13
35908;BME280;22003;50.320;8.054;2023-02-03T10:05:15;100550.94;;;8.67;85.09
35908;BME280;22003;50.320;8.054;2023-02-03T10:10:52;100578.34;;;8.80;86.39
35908;BME280;22003;50.320;8.054;2023-02-03T10:13:56;100581.56;;;8.85;85.41
35908;BME280;22003;50.320;8.054;2023-02-03T10:16:40;100563.34;;;8.65;86.50
35908;BME280;22003;50.320;8.054;2023-02-03T10:19:16;100570.56;;;8.77;86.51
35908;BME280;22003;50.320;8.054;2023-02-03T10:22:04;100573.91;;;8.65;86.76
35908;BME280;22003;50.320;8.054;2023-02-03T10:24:39;100588.50;;;8.72;87.06
35908;BME280;22003;50.320;8.054;2023-02-03T10:27:16;100585.19;;;8.68;87.77
35908;BME280;22003;50.320;8.054;2023-02-03T10:29:42;100574.88;;;8.64;87.69
35908;BME280;22003;50.320;8.054;2023-02-03T10:32:11;100597.09;;;8.76;88.22
35908;BME280;22003;50.320;8.054;2023-02-03T10:34:37;100609.19;;;8.64;88.83
35908;BME280;22003;50.320;8.054;2023-02-03T10:37:24;100603.56;;;8.54;88.96
35908;BME280;22003;50.320;8.054;2023-02-03T10:39:51;100611.44;;;8.40;90.73
35908;BME280;22003;50.320;8.054;2023-02-03T10:42:18;100607.25;;;8.36;91.38
35908;BME280;22003;50.320;8.054;2023-02-03T10:44:48;100620.63;;;8.49;91.67
35908;BME280;22003;50.320;8.054;2023-02-03T10:47:30;100593.25;;;8.18;92.78
35908;BME280;22003;50.320;8.054;2023-02-03T10:50:02;100600.81;;;8.24;94.14
35908;BME280;22003;50.320;8.054;2023-02-03T10:52:35;100613.84;;;8.27;94.72
35908;BME280;22003;50.320;8.054;2023-02-03T10:55:05;100628.97;;;8.08;96.87
35908;BME280;22003;50.320;8.054;2023-02-03T10:57:34;100619.59;;;8.02;98.46
35908;BME280;22003;50.320;8.054;2023-02-03T11:00:30;100613.91;;;7.94;100.00
35908;BME280;22003;50.320;8.054;2023-02-03T11:03:06;100596.59;;;7.88;100.00
35908;BME280;22003;50.320;8.054;2023-02-03T11:05:33;100597.72;;;8.00;100.00
35908;BME280;22003;50.320;8.054;2023-02-03T11:07:58;100579.66;;;7.92;100.00
35908;BME280;22003;50.320;8.054;2023-02-03T11:10:32;100591.69;;;8.14;100.00
35908;BME280;22003;50.320;8.054;2023-02-03T11:13:23;100589.41;;;8.08;100.00
35908;BME280;22003;50.320;8.054;2023-02-03T11:16:13;100578.84;;;8.08;100.00
35908;BME280;22003;50.320;8.054;2023-02-03T11:18:44;100570.56;;;7.98;100.00
35908;BME280;22003;50.320;8.054;2023-02-03T11:21:14;100566.34;;;8.11;100.00
35908;BME280;22003;50.320;8.054;2023-02-03T11:23:47;100561.22;;;8.08;100.00
35908;BME280;22003;50.320;8.054;2023-02-03T11:26:18;100542.13;;;8.03;100.00
35908;BME280;22003;50.320;8.054;2023-02-03T11:28:45;100547.00;;;8.11;100.00
35908;BME280;22003;50.320;8.054;2023-02-03T11:31:26;100565.84;;;8.36;100.00
35908;BME280;22003;50.320;8.054;2023-02-03T11:33:57;100572.97;;;8.34;100.00
35908;BME280;22003;50.320;8.054;2023-02-03T11:36:27;100570.41;;;8.33;100.00
35908;BME280;22003;50.320;8.054;2023-02-03T11:39:08;100570.69;;;8.28;100.00
35908;BME280;22003;50.320;8.054;2023-02-03T11:41:38;100566.00;;;8.17;100.00
35908;BME280;22003;50.320;8.054;2023-02-03T11:44:30;100582.75;;;8.01;100.00
35908;BME280;22003;50.320;8.054;2023-02-03T11:47:01;100582.22;;;8.10;100.00
35908;BME280;22003;50.320;8.054;2023-02-03T11:49:40;100577.38;;;8.02;100.00
35908;BME280;22003;50.320;8.054;2023-02-03T11:52:24;100569.09;;;7.92;100.00
35908;BME280;22003;50.320;8.054;2023-02-03T11:55:19;100572.69;;;7.91;100.00
35908;BME280;22003;50.320;8.054;2023-02-03T12:00:53;100550.03;;;7.87;100.00
35908;BME280;22003;50.320;8.054;2023-02-03T12:06:32;100557.19;;;7.85;100.00
35908;BME280;22003;50.320;8.054;2023-02-03T12:11:55;100519.78;;;7.77;100.00
35908;BME280;22003;50.320;8.054;2023-02-03T12:20:37;100531.25;;;8.09;100.00
35908;BME280;22003;50.320;8.054;2023-02-03T12:23:10;100541.31;;;8.18;100.00
35908;BME280;22003;50.320;8.054;2023-02-03T12:31:16;100516.00;;;7.99;100.00
35908;BME280;22003;50.320;8.054;2023-02-03T12:33:48;100532.69;;;8.15;100.00
35908;BME280;22003;50.320;8.054;2023-02-03T12:36:19;100536.44;;;8.27;100.00
35908;BME280;22003;50.320;8.054;2023-02-03T12:38:55;100528.94;;;8.19;100.00
35908;BME280;22003;50.320;8.054;2023-02-03T12:41:30;100524.09;;;7.96;100.00
35908;BME280;22003;50.320;8.054;2023-02-03T12:44:01;100531.34;;;8.08;100.00
35908;BME280;22003;50.320;8.054;2023-02-03T12:46:36;100531.56;;;8.03;100.00
35908;BME280;22003;50.320;8.054;2023-02-03T12:49:15;100516.34;;;8.08;100.00
35908;BME280;22003;50.320;8.054;2023-02-03T12:51:50;100529.63;;;8.07;100.00
35908;BME280;22003;50.320;8.054;2023-02-03T12:54:39;100509.47;;;8.06;100.00
35908;BME280;22003;50.320;8.054;2023-02-03T12:57:31;100520.63;;;8.11;100.00
35908;BME280;22003;50.320;8.054;2023-02-03T13:00:20;100526.81;;;8.10;100.00
35908;BME280;22003;50.320;8.054;2023-02-03T13:02:59;100532.78;;;8.29;100.00
35908;BME280;22003;50.320;8.054;2023-02-03T13:05:48;100520.28;;;8.17;100.00
35908;BME280;22003;50.320;8.054;2023-02-03T13:08:30;100505.78;;;8.08;100.00
35908;BME280;22003;50.320;8.054;2023-02-03T13:13:48;100520.28;;;8.17;100.00
35908;BME280;22003;50.320;8.054;2023-02-03T13:16:18;100528.00;;;8.04;100.00
35908;BME280;22003;50.320;8.054;2023-02-03T13:18:51;100500.75;;;8.04;100.00
35908;BME280;22003;50.320;8.054;2023-02-03T13:21:18;100521.28;;;8.14;100.00
35908;BME280;22003;50.320;8.054;2023-02-03T13:23:43;100512.84;;;8.08;100.00
35908;BME280;22003;50.320;8.054;2023-02-03T13:29:09;100525.97;;;8.09;100.00
35908;BME280;22003;50.320;8.054;2023-02-03T13:32:00;100542.59;;;8.11;100.00
35908;BME280;22003;50.320;8.054;2023-02-03T13:37:19;100531.69;;;8.17;100.00
35908;BME280;22003;50.320;8.054;2023-02-03T13:39:53;100546.91;;;8.12;100.00
35908;BME280;22003;50.320;8.054;2023-02-03T13:42:23;100531.34;;;8.08;100.00
35908;BME280;22003;50.320;8.054;2023-02-03T13:44:54;100520.00;;;8.21;100.00
35908;BME280;22003;50.320;8.054;2023-02-03T13:47:27;100509.78;;;8.15;100.00
35908;BME280;22003;50.320;8.054;2023-02-03T13:50:02;100520.44;;;8.14;100.00
35908;BME280;22003;50.320;8.054;2023-02-03T13:52:37;100527.84;;;8.23;100.00
35908;BME280;22003;50.320;8.054;2023-02-03T13:55:06;100507.69;;;8.06;100.00
35908;BME280;22003;50.320;8.054;2023-02-03T13:57:33;100525.22;;;8.23;100.00
35908;BME280;22003;50.320;8.054;2023-02-03T14:00:00;100513.97;;;8.19;100.00
35908;BME280;22003;50.320;8.054;2023-02-03T14:04:55;100522.88;;;8.33;100.00
35908;BME280;22003;50.320;8.054;2023-02-03T14:07:38;100488.94;;;8.11;100.00
35908;BME280;22003;50.320;8.054;2023-02-03T14:12:54;100537.81;;;8.34;100.00
35908;BME280;22003;50.320;8.054;2023-02-03T14:15:27;100561.47;;;8.35;100.00
35908;BME280;22003;50.320;8.054;2023-02-03T14:17:56;100543.78;;;8.37;100.00
35908;BME280;22003;50.320;8.054;2023-02-03T14:22:53;100556.72;;;8.42;100.00
35908;BME280;22003;50.320;8.054;2023-02-03T14:25:20;100562.44;;;8.50;100.00
35908;BME280;22003;50.320;8.054;2023-02-03T14:27:46;100550.59;;;8.57;100.00
35908;BME280;22003;50.320;8.054;2023-02-03T14:30:14;100552.97;;;8.62;100.00
35908;BME280;22003;50.320;8.054;2023-02-03T14:32:50;100556.56;;;8.61;100.00
35908;BME280;22003;50.320;8.054;2023-02-03T14:35:35;100569.84;;;8.59;100.00
35908;BME280;22003;50.320;8.054;2023-02-03T14:38:04;100562.34;;;8.67;100.00
35908;BME280;22003;50.320;8.054;2023-02-03T14:40:41;100549.28;;;8.64;100.00
35908;BME280;22003;50.320;8.054;2023-02-03T14:43:13;100522.63;;;8.69;100.00
35908;BME280;22003;50.320;8.054;2023-02-03T14:51:14;100507.69;;;8.84;100.00
35908;BME280;22003;50.320;8.054;2023-02-03T14:53:57;100548.81;;;8.88;100.00
35908;BME280;22003;50.320;8.054;2023-02-03T14:59:47;100529.59;;;8.70;100.00
35908;BME280;22003;50.320;8.054;2023-02-03T15:02:25;100537.00;;;8.79;100.00
35908;BME280;22003;50.320;8.054;2023-02-03T15:07:41;100569.63;;;8.94;100.00
35908;BME280;22003;50.320;8.054;2023-02-03T15:10:26;100543.03;;;8.81;100.00
35908;BME280;22003;50.320;8.054;2023-02-03T15:12:55;100579.91;;;8.98;100.00
35908;BME280;22003;50.320;8.054;2023-02-03T15:15:26;100531.13;;;8.74;100.00
35908;BME280;22003;50.320;8.054;2023-02-03T15:17:54;100543.91;;;8.66;100.00
35908;BME280;22003;50.320;8.054;2023-02-03T15:20:37;100569.66;;;8.78;100.00
35908;BME280;22003;50.320;8.054;2023-02-03T15:25:52;100562.16;;;8.70;100.00
35908;BME280;22003;50.320;8.054;2023-02-03T15:28:19;100583.38;;;8.69;100.00
35908;BME280;22003;50.320;8.054;2023-02-03T15:30:45;100580.47;;;8.73;100.00
35908;BME280;22003;50.320;8.054;2023-02-03T15:33:16;100585.56;;;8.77;100.00
35908;BME280;22003;50.320;8.054;2023-02-03T15:35:48;100580.38;;;8.75;100.00
35908;BME280;22003;50.320;8.054;2023-02-03T15:38:19;100591.16;;;8.72;100.00
35908;BME280;22003;50.320;8.054;2023-02-03T15:40:48;100591.31;;;8.69;100.00
35908;BME280;22003;50.320;8.054;2023-02-03T15:43:39;100593.69;;;8.58;100.00
35908;BME280;22003;50.320;8.054;2023-02-03T15:46:29;100613.78;;;8.60;100.00
35908;BME280;22003;50.320;8.054;2023-02-03T15:49:13;100588.06;;;8.48;100.00
35908;BME280;22003;50.320;8.054;2023-02-03T15:51:48;100605.97;;;8.43;100.00
35908;BME280;22003;50.320;8.054;2023-02-03T15:54:27;100617.72;;;8.37;100.00
35908;BME280;22003;50.320;8.054;2023-02-03T15:59:46;100612.97;;;8.44;100.00
35908;BME280;22003;50.320;8.054;2023-02-03T16:02:32;100626.72;;;8.33;100.00
35908;BME280;22003;50.320;8.054;2023-02-03T16:05:03;100637.78;;;8.24;100.00
35908;BME280;22003;50.320;8.054;2023-02-03T16:07:30;100648.94;;;8.29;100.00
35908;BME280;22003;50.320;8.054;2023-02-03T16:09:59;100653.38;;;8.29;100.00
35908;BME280;22003;50.320;8.054;2023-02-03T16:12:27;100638.97;;;8.18;100.00
35908;BME280;22003;50.320;8.054;2023-02-03T16:14:54;100641.84;;;8.14;100.00
35908;BME280;22003;50.320;8.054;2023-02-03T16:17:28;100630.78;;;8.07;100.00
35908;BME280;22003;50.320;8.054;2023-02-03T16:22:37;100631.41;;;8.28;100.00
35908;BME280;22003;50.320;8.054;2023-02-03T16:25:23;100622.38;;;8.16;100.00
35908;BME280;22003;50.320;8.054;2023-02-03T16:28:15;100625.00;;;8.32;100.00
35908;BME280;22003;50.320;8.054;2023-02-03T16:31:15;100619.56;;;8.35;100.00
35908;BME280;22003;50.320;8.054;2023-02-03T16:34:00;100637.84;;;8.40;100.00
35908;BME280;22003;50.320;8.054;2023-02-03T16:36:44;100621.81;;;8.43;100.00
35908;BME280;22003;50.320;8.054;2023-02-03T16:39:28;100614.28;;;8.35;100.00
35908;BME280;22003;50.320;8.054;2023-02-03T16:42:18;100632.72;;;8.53;100.00
35908;BME280;22003;50.320;8.054;2023-02-03T16:45:09;100612.97;;;8.44;100.00
35908;BME280;22003;50.320;8.054;2023-02-03T16:47:54;100621.81;;;8.43;100.00
35908;BME280;22003;50.320;8.054;2023-02-03T16:50:38;100620.81;;;8.45;100.00
35908;BME280;22003;50.320;8.054;2023-02-03T16:53:24;100629.72;;;8.43;100.00
35908;BME280;22003;50.320;8.054;2023-02-03T16:55:51;100622.66;;;8.43;100.00
35908;BME280;22003;50.320;8.054;2023-02-03T16:58:18;100629.63;;;8.60;100.00
35908;BME280;22003;50.320;8.054;2023-02-03T17:00:45;100629.84;;;8.57;100.00
35908;BME280;22003;50.320;8.054;2023-02-03T17:03:13;100627.03;;;8.44;100.00
35908;BME280;22003;50.320;8.054;2023-02-03T17:05:41;100640.31;;;8.59;100.00
35908;BME280;22003;50.320;8.054;2023-02-03T17:08:07;100634.50;;;8.52;100.00
35908;BME280;22003;50.320;8.054;2023-02-03T17:10:33;100630.28;;;8.50;100.00
35908;BME280;22003;50.320;8.054;2023-02-03T17:12:59;100666.31;;;8.51;100.00
35908;BME280;22003;50.320;8.054;2023-02-03T17:15:24;100656.22;;;8.41;100.00
35908;BME280;22003;50.320;8.054;2023-02-03T17:17:49;100669.88;;;8.50;100.00
35908;BME280;22003;50.320;8.054;2023-02-03T17:20:15;100662.69;;;8.36;100.00
35908;BME280;22003;50.320;8.054;2023-02-03T17:22:40;100685.81;;;8.31;100.00
35908;BME280;22003;50.320;8.054;2023-02-03T17:25:06;100673.81;;;8.25;100.00
35908;BME280;22003;50.320;8.054;2023-02-03T17:27:32;100681.28;;;8.17;100.00
35908;BME280;22003;50.320;8.054;2023-02-03T17:29:57;100690.38;;;8.11;100.00
35908;BME280;22003;50.320;8.054;2023-02-03T17:32:22;100703.53;;;7.96;100.00
35908;BME280;22003;50.320;8.054;2023-02-03T17:34:47;100722.22;;;7.74;100.00
35908;BME280;22003;50.320;8.054;2023-02-03T17:37:13;100716.16;;;7.54;100.00
35908;BME280;22003;50.320;8.054;2023-02-03T17:39:38;100738.50;;;7.64;100.00
35908;BME280;22003;50.320;8.054;2023-02-03T17:42:03;100719.63;;;7.37;100.00
35908;BME280;22003;50.320;8.054;2023-02-03T17:44:29;100736.56;;;7.51;100.00
35908;BME280;22003;50.320;8.054;2023-02-03T17:46:54;100735.31;;;7.40;100.00
35908;BME280;22003;50.320;8.054;2023-02-03T17:49:19;100754.19;;;7.50;100.00
35908;BME280;22003;50.320;8.054;2023-02-03T17:51:45;100749.78;;;7.68;100.00
35908;BME280;22003;50.320;8.054;2023-02-03T17:54:10;100742.50;;;7.37;100.00
35908;BME280;22003;50.320;8.054;2023-02-03T17:56:36;100751.56;;;7.67;100.00
35908;BME280;22003;50.320;8.054;2023-02-03T17:59:03;100767.94;;;7.38;100.00
35908;BME280;22003;50.320;8.054;2023-02-03T18:01:29;100766.22;;;7.56;100.00
35908;BME280;22003;50.320;8.054;2023-02-03T18:03:58;100742.53;;;7.54;100.00
35908;BME280;22003;50.320;8.054;2023-02-03T18:06:25;100744.94;;;7.59;99.31
35908;BME280;22003;50.320;8.054;2023-02-03T18:08:51;100750.28;;;7.40;100.00
35908;BME280;22003;50.320;8.054;2023-02-03T18:11:18;100774.88;;;7.58;100.00
35908;BME280;22003;50.320;8.054;2023-02-03T18:13:46;100754.19;;;7.67;99.75
35908;BME280;22003;50.320;8.054;2023-02-03T18:16:17;100766.91;;;7.59;100.00
35908;BME280;22003;50.320;8.054;2023-02-03T18:18:44;100768.22;;;7.51;100.00
35908;BME280;22003;50.320;8.054;2023-02-03T18:21:12;100781.44;;;7.49;100.00
35908;BME280;22003;50.320;8.054;2023-02-03T18:23:38;100765.56;;;7.33;100.00
35908;BME280;22003;50.320;8.054;2023-02-03T18:26:05;100772.38;;;7.37;100.00
35908;BME280;22003;50.320;8.054;2023-02-03T18:28:31;100766.13;;;7.57;100.00
35908;BME280;22003;50.320;8.054;2023-02-03T18:31:02;100769.00;;;7.53;100.00
35908;BME280;22003;50.320;8.054;2023-02-03T18:33:27;100766.03;;;7.59;100.00
35908;BME280;22003;50.320;8.054;2023-02-03T18:35:55;100775.94;;;7.36;100.00
35908;BME280;22003;50.320;8.054;2023-02-03T18:38:20;100787.22;;;7.57;100.00
35908;BME280;22003;50.320;8.054;2023-02-03T18:40:46;100758.28;;;7.38;100.00
35908;BME280;22003;50.320;8.054;2023-02-03T18:43:11;100779.44;;;7.54;100.00
35908;BME280;22003;50.320;8.054;2023-02-03T18:45:37;100757.03;;;7.46;99.59
35908;BME280;22003;50.320;8.054;2023-02-03T18:48:02;100779.91;;;7.45;100.00
35908;BME280;22003;50.320;8.054;2023-02-03T18:50:28;100783.44;;;7.63;100.00
35908;BME280;22003;50.320;8.054;2023-02-03T18:52:53;100793.34;;;7.58;99.61
35908;BME280;22003;50.320;8.054;2023-02-03T18:55:19;100781.78;;;7.60;98.17
35908;BME280;22003;50.320;8.054;2023-02-03T18:57:44;100770.06;;;7.49;98.53
35908;BME280;22003;50.320;8.054;2023-02-03T19:00:11;100789.41;;;7.66;97.83
35908;BME280;22003;50.320;8.054;2023-02-03T19:02:38;100772.22;;;7.40;98.62
35908;BME280;22003;50.320;8.054;2023-02-03T19:05:03;100776.13;;;7.51;97.26
35908;BME280;22003;50.320;8.054;2023-02-03T19:07:30;100809.81;;;7.63;97.50
35908;BME280;22003;50.320;8.054;2023-02-03T19:09:55;100797.84;;;7.56;97.77
35908;BME280;22003;50.320;8.054;2023-02-03T19:12:20;100822.06;;;7.64;97.33
35908;BME280;22003;50.320;8.054;2023-02-03T19:14:45;100809.81;;;7.63;96.40
35908;BME280;22003;50.320;8.054;2023-02-03T19:17:11;100794.50;;;7.52;96.98